首页
METAR-TAF:

METAR-TAF

机场 :

布林迪西, 意大利

纬度: 40-39N, 经度: 017-57E, 海拔: 15米

当前天气观测

该预报发布于7小时和25分钟前的20:50 UTC
风速18节,风向
温度 20°C
湿度 83%
气压 1009 hPa
能见度10公里或以上
少量云层高于1000英尺

METAR: LIBR 042050Z 18018KT 9999 FEW010 20/17 Q1009

时间: 06:15 (04:15 UTC)

预报

该预报发布于10小时和19分钟前的17:56 UTC
预报有效从04日的 18点(UTC)到 05日的 18点(UTC)
风速12节,风向
能见度10公里或以上
散云层高于3000英尺
短暂存在
从 04日的 18点(UTC)到 04日的 20点(UTC)
风速18节,风向,有时为28节阵风
短暂存在
从 05日的 12点(UTC)到 05日的 18点(UTC)

TAF: LIBR 041756Z 0418/0518 18012KT 9999 SCT030 TEMPO 0418/0420 18018G28KT TEMPO 0512/0518 RA

超过4000个机场的气象观测和天气预报(METAR&TAF报告)。

可查询的气象台以黄色和红色小点在地图上表示。

将鼠标移到小点上方,可查看气象台名称。

然后点击查看天气观测和预报。

如需切换地图:点击带黑十字的绿色按钮放大地图;点击带横线的绿色按钮缩小地图;或者点击绿色箭头查看邻近地区的地图。


METAR-TAF: